Time,TemperatureF,DewpointF,PressureIn,WindDirection,WindDirectionDegrees,WindSpeedMPH,WindSpeedGustMPH,Humidity,HourlyPrecipIn,Conditions,Clouds,dailyrainin,SoftwareType,DateUTC
2013-06-13 00:01:00,81.0,27.0,29.65,NW,305,2.0,-999.0,14,-99.99,,,-99.99,,2013-06-13 07:01:00,
2013-06-13 00:11:00,81.0,27.0,29.65,NW,305,2.0,-999.0,14,-99.99,,,-99.99,,2013-06-13 07:11:00,
2013-06-13 00:22:00,81.0,29.0,29.65,NW,314,1.0,-999.0,15,-99.99,,,-99.99,,2013-06-13 07:22:00,
2013-06-13 00:33:00,81.0,29.0,29.65,NW,315,1.0,-999.0,15,-99.99,,,-99.99,,2013-06-13 07:33:00,
2013-06-13 00:42:00,80.0,30.0,29.67,NW,316,0.0,-999.0,16,-99.99,,,-99.99,,2013-06-13 07:42:00,
2013-06-13 00:52:00,80.0,30.0,29.67,NW,316,0.0,-999.0,16,-99.99,,,-99.99,,2013-06-13 07:52:00,
2013-06-13 01:01:00,77.0,29.0,29.67,NW,316,0.0,-999.0,17,-99.99,,,-99.99,,2013-06-13 08:01:00,
2013-06-13 01:11:00,75.0,29.0,29.67,NW,316,0.0,-999.0,18,-99.99,,,-99.99,,2013-06-13 08:11:00,
2013-06-13 01:22:00,75.0,29.0,29.67,NW,316,0.0,-999.0,18,-99.99,,,-99.99,,2013-06-13 08:22:00,
2013-06-13 01:32:00,76.0,28.0,29.67,NW,316,0.0,-999.0,17,-99.99,,,-99.99,,2013-06-13 08:32:00,
2013-06-13 01:42:00,73.0,28.0,29.67,South,174,0.0,-999.0,19,-99.99,,,-99.99,,2013-06-13 08:42:00,
2013-06-13 01:52:00,73.0,28.0,29.67,South,174,0.0,-999.0,19,-99.99,,,-99.99,,2013-06-13 08:52:00,
2013-06-13 02:01:00,70.0,29.0,29.67,South,174,0.0,-999.0,22,-99.99,,,-99.99,,2013-06-13 09:01:00,
2013-06-13 02:11:00,72.0,37.0,29.66,South,175,0.0,-999.0,28,-99.99,,,-99.99,,2013-06-13 09:11:00,
2013-06-13 02:22:00,72.0,37.0,29.66,South,175,0.0,-999.0,28,-99.99,,,-99.99,,2013-06-13 09:22:00,
2013-06-13 02:32:00,72.0,37.0,29.66,South,175,0.0,-999.0,28,-99.99,,,-99.99,,2013-06-13 09:32:00,
2013-06-13 02:42:00,73.0,37.0,29.65,West,270,1.0,-999.0,27,-99.99,,,-99.99,,2013-06-13 09:42:00,
2013-06-13 02:52:00,73.0,37.0,29.65,West,270,1.0,-999.0,27,-99.99,,,-99.99,,2013-06-13 09:52:00,
2013-06-13 03:01:00,71.0,36.0,29.66,West,270,0.0,-999.0,28,-99.99,,,-99.99,,2013-06-13 10:01:00,
2013-06-13 03:11:00,71.0,36.0,29.66,West,270,0.0,-999.0,28,-99.99,,,-99.99,,2013-06-13 10:11:00,
2013-06-13 03:22:00,71.0,36.0,29.66,West,270,0.0,-999.0,28,-99.99,,,-99.99,,2013-06-13 10:22:00,
2013-06-13 03:42:00,69.0,38.0,29.67,West,270,0.0,-999.0,32,-99.99,,,-99.99,,2013-06-13 10:42:00,
2013-06-13 03:53:00,69.0,38.0,29.67,West,270,0.0,-999.0,32,-99.99,,,-99.99,,2013-06-13 10:53:00,
2013-06-13 04:01:00,69.0,41.0,29.66,West,270,0.0,-999.0,36,-99.99,,,-99.99,,2013-06-13 11:01:00,
2013-06-13 04:11:00,69.0,41.0,29.66,West,270,0.0,-999.0,36,-99.99,,,-99.99,,2013-06-13 11:11:00,
2013-06-13 04:23:00,69.0,41.0,29.66,West,270,0.0,-999.0,36,-99.99,,,-99.99,,2013-06-13 11:23:00,
2013-06-13 04:32:00,69.0,41.0,29.66,West,270,0.0,-999.0,36,-99.99,,,-99.99,,2013-06-13 11:32:00,
2013-06-13 04:42:00,73.0,37.0,29.66,WNW,297,2.0,-999.0,27,-99.99,,,-99.99,,2013-06-13 11:42:00,
2013-06-13 04:52:00,73.0,37.0,29.66,WNW,297,2.0,-999.0,27,-99.99,,,-99.99,,2013-06-13 11:52:00,
2013-06-13 05:01:00,73.0,38.0,29.67,WNW,296,0.0,-999.0,28,-99.99,,,-99.99,,2013-06-13 12:01:00,
2013-06-13 05:11:00,73.0,38.0,29.67,WNW,296,0.0,-999.0,28,-99.99,,,-99.99,,2013-06-13 12:11:00,
2013-06-13 05:22:00,73.0,38.0,29.67,WNW,296,0.0,-999.0,28,-99.99,,,-99.99,,2013-06-13 12:22:00,
2013-06-13 05:34:00,71.0,38.0,29.67,WNW,296,0.0,-999.0,30,-99.99,,,-99.99,,2013-06-13 12:34:00,
2013-06-13 05:42:00,69.0,39.0,29.67,WNW,296,0.0,-999.0,33,-99.99,,,-99.99,,2013-06-13 12:42:00,
2013-06-13 05:52:00,69.0,39.0,29.67,WNW,296,0.0,-999.0,33,-99.99,,,-99.99,,2013-06-13 12:52:00,
2013-06-13 06:01:00,68.0,39.0,29.67,WNW,296,0.0,-999.0,35,-99.99,,,-99.99,,2013-06-13 13:01:00,
2013-06-13 06:11:00,68.0,39.0,29.67,WNW,296,0.0,-999.0,35,-99.99,,,-99.99,,2013-06-13 13:11:00,
2013-06-13 06:21:00,67.0,41.0,29.68,WNW,296,0.0,-999.0,39,-99.99,,,-99.99,,2013-06-13 13:21:00,
2013-06-13 06:32:00,68.0,43.0,29.68,WNW,296,0.0,-999.0,41,-99.99,,,-99.99,,2013-06-13 13:32:00,
2013-06-13 06:43:00,69.0,46.0,29.69,North,9,0.0,-999.0,44,-99.99,,,-99.99,,2013-06-13 13:43:00,
2013-06-13 06:53:00,69.0,46.0,29.69,North,9,0.0,-999.0,44,-99.99,,,-99.99,,2013-06-13 13:53:00,
2013-06-13 07:01:00,70.0,45.0,29.69,North,9,0.0,-999.0,41,-99.99,,,-99.99,,2013-06-13 14:01:00,
2013-06-13 07:11:00,70.0,45.0,29.69,North,9,0.0,-999.0,41,-99.99,,,-99.99,,2013-06-13 14:11:00,
2013-06-13 07:22:00,72.0,46.0,29.69,North,9,0.0,-999.0,39,-99.99,,,-99.99,,2013-06-13 14:22:00,
2013-06-13 07:33:00,74.0,44.0,29.69,NNE,29,0.0,-999.0,34,-99.99,,,-99.99,,2013-06-13 14:33:00,
2013-06-13 07:43:00,76.0,41.0,29.69,NNE,29,0.0,-999.0,29,-99.99,,,-99.99,,2013-06-13 14:43:00,
2013-06-13 07:53:00,76.0,41.0,29.69,NNE,29,0.0,-999.0,29,-99.99,,,-99.99,,2013-06-13 14:53:00,
2013-06-13 08:01:00,78.0,42.0,29.69,NNE,32,0.0,-999.0,28,-99.99,,,-99.99,,2013-06-13 15:01:00,
2013-06-13 08:11:00,80.0,44.0,29.69,NNE,32,0.0,-999.0,28,-99.99,,,-99.99,,2013-06-13 15:11:00,
2013-06-13 08:21:00,80.0,44.0,29.69,NNE,32,0.0,-999.0,28,-99.99,,,-99.99,,2013-06-13 15:21:00,
2013-06-13 08:33:00,80.0,44.0,29.69,NE,40,0.0,-999.0,28,-99.99,,,-99.99,,2013-06-13 15:33:00,
2013-06-13 08:43:00,80.0,44.0,29.69,NE,40,0.0,-999.0,28,-99.99,,,-99.99,,2013-06-13 15:43:00,
2013-06-13 08:53:00,80.0,44.0,29.69,NE,39,0.0,-999.0,28,-99.99,,,-99.99,,2013-06-13 15:53:00,
2013-06-13 09:01:00,82.0,44.0,29.68,NE,46,1.0,-999.0,26,-99.99,,,-99.99,,2013-06-13 16:01:00,
2013-06-13 09:11:00,84.0,42.0,29.68,NE,53,1.0,-999.0,23,-99.99,,,-99.99,,2013-06-13 16:11:00,
2013-06-13 09:22:00,84.0,42.0,29.68,NE,53,1.0,-999.0,23,-99.99,,,-99.99,,2013-06-13 16:22:00,
2013-06-13 09:33:00,84.0,41.0,29.68,NNE,15,1.0,-999.0,22,-99.99,,,-99.99,,2013-06-13 16:33:00,
2013-06-13 09:43:00,86.0,39.0,29.68,NE,36,1.0,-999.0,19,-99.99,,,-99.99,,2013-06-13 16:43:00,
2013-06-13 09:53:00,86.0,39.0,29.68,NE,36,1.0,-999.0,19,-99.99,,,-99.99,,2013-06-13 16:53:00,
2013-06-13 10:02:00,88.0,39.0,29.68,North,351,1.0,-999.0,18,-99.99,,,-99.99,,2013-06-13 17:02:00,
2013-06-13 10:11:00,88.0,39.0,29.68,North,351,1.0,-999.0,18,-99.99,,,-99.99,,2013-06-13 17:11:00,
2013-06-13 10:24:00,89.0,38.0,29.68,NNE,30,2.0,-999.0,17,-99.99,,,-99.99,,2013-06-13 17:24:00,
2013-06-13 10:32:00,90.0,38.0,29.68,North,9,4.0,-999.0,16,-99.99,,,-99.99,,2013-06-13 17:32:00,
2013-06-13 10:43:00,91.0,39.0,29.68,NNW,346,2.0,-999.0,16,-99.99,,,-99.99,,2013-06-13 17:43:00,
2013-06-13 10:53:00,91.0,39.0,29.68,NNW,346,2.0,-999.0,16,-99.99,,,-99.99,,2013-06-13 17:53:00,
2013-06-13 11:02:00,91.0,39.0,29.68,North,360,5.0,-999.0,16,-99.99,,,-99.99,,2013-06-13 18:02:00,
2013-06-13 11:11:00,91.0,39.0,29.68,North,360,5.0,-999.0,16,-99.99,,,-99.99,,2013-06-13 18:11:00,
2013-06-13 11:22:00,92.0,36.0,29.67,NNE,13,5.0,-999.0,14,-99.99,,,-99.99,,2013-06-13 18:22:00,
2013-06-13 11:33:00,93.0,35.0,29.67,NNE,24,5.0,-999.0,13,-99.99,,,-99.99,,2013-06-13 18:33:00,
2013-06-13 11:43:00,94.0,38.0,29.67,NNE,20,2.0,-999.0,14,-99.99,,,-99.99,,2013-06-13 18:43:00,
2013-06-13 11:52:00,94.0,38.0,29.67,NNE,20,2.0,-999.0,14,-99.99,,,-99.99,,2013-06-13 18:52:00,
2013-06-13 12:01:00,94.0,36.0,29.66,NNE,26,4.0,-999.0,13,-99.99,,,-99.99,,2013-06-13 19:01:00,
2013-06-13 12:11:00,94.0,34.0,29.66,NNE,12,3.0,-999.0,12,-99.99,,,-99.99,,2013-06-13 19:11:00,
2013-06-13 12:22:00,94.0,34.0,29.66,NNE,12,3.0,-999.0,12,-99.99,,,-99.99,,2013-06-13 19:22:00,
2013-06-13 12:32:00,94.0,36.0,29.65,NW,316,5.0,-999.0,13,-99.99,,,-99.99,,2013-06-13 19:32:00,
2013-06-13 12:43:00,96.0,35.0,29.65,North,350,3.0,-999.0,12,-99.99,,,-99.99,,2013-06-13 19:43:00,
2013-06-13 12:53:00,96.0,35.0,29.65,North,350,3.0,-999.0,12,-99.99,,,-99.99,,2013-06-13 19:53:00,
2013-06-13 13:01:00,95.0,34.0,29.64,North,360,6.0,-999.0,12,-99.99,,,-99.99,,2013-06-13 20:01:00,
2013-06-13 13:11:00,96.0,35.0,29.64,NE,44,5.0,-999.0,12,-99.99,,,-99.99,,2013-06-13 20:11:00,
2013-06-13 13:22:00,96.0,35.0,29.64,NE,44,5.0,-999.0,12,-99.99,,,-99.99,,2013-06-13 20:22:00,
2013-06-13 13:32:00,95.0,36.0,29.63,North,350,5.0,-999.0,13,-99.99,,,-99.99,,2013-06-13 20:32:00,
2013-06-13 13:43:00,95.0,36.0,29.63,North,350,5.0,-999.0,13,-99.99,,,-99.99,,2013-06-13 20:43:00,
2013-06-13 13:53:00,95.0,36.0,29.63,North,350,5.0,-999.0,13,-99.99,,,-99.99,,2013-06-13 20:53:00,
2013-06-13 14:01:00,96.0,33.0,29.62,NW,308,5.0,-999.0,11,-99.99,,,-99.99,,2013-06-13 21:01:00,
2013-06-13 14:11:00,97.0,34.0,29.61,North,360,6.0,-999.0,11,-99.99,,,-99.99,,2013-06-13 21:11:00,
2013-06-13 14:22:00,97.0,34.0,29.61,North,360,6.0,-999.0,11,-99.99,,,-99.99,,2013-06-13 21:22:00,
2013-06-13 14:34:00,97.0,34.0,29.61,NNE,18,5.0,-999.0,11,-99.99,,,-99.99,,2013-06-13 21:34:00,
2013-06-13 14:43:00,98.0,35.0,29.60,North,360,4.0,-999.0,11,-99.99,,,-99.99,,2013-06-13 21:43:00,
2013-06-13 14:52:00,98.0,35.0,29.60,North,360,4.0,-999.0,11,-99.99,,,-99.99,,2013-06-13 21:52:00,
2013-06-13 15:01:00,97.0,36.0,29.59,NNW,333,5.0,-999.0,12,-99.99,,,-99.99,,2013-06-13 22:01:00,
2013-06-13 15:11:00,97.0,36.0,29.59,NNW,333,5.0,-999.0,12,-99.99,,,-99.99,,2013-06-13 22:11:00,
2013-06-13 15:22:00,98.0,35.0,29.59,NW,321,5.0,-999.0,11,-99.99,,,-99.99,,2013-06-13 22:22:00,
2013-06-13 15:32:00,97.0,36.0,29.58,NW,305,6.0,-999.0,12,-99.99,,,-99.99,,2013-06-13 22:32:00,
2013-06-13 15:42:00,96.0,35.0,29.57,NNW,342,6.0,-999.0,12,-99.99,,,-99.99,,2013-06-13 22:42:00,
2013-06-13 15:52:00,96.0,35.0,29.57,NNW,342,6.0,-999.0,12,-99.99,,,-99.99,,2013-06-13 22:52:00,
2013-06-13 16:01:00,96.0,37.0,29.57,NNE,13,6.0,-999.0,13,-99.99,,,-99.99,,2013-06-13 23:01:00,
2013-06-13 16:11:00,96.0,37.0,29.57,NNE,13,6.0,-999.0,13,-99.99,,,-99.99,,2013-06-13 23:11:00,
2013-06-13 16:22:00,96.0,37.0,29.57,NW,316,6.0,-999.0,13,-99.99,,,-99.99,,2013-06-13 23:22:00,
2013-06-13 16:32:00,95.0,36.0,29.57,North,349,7.0,-999.0,13,-99.99,,,-99.99,,2013-06-13 23:32:00,
2013-06-13 16:43:00,95.0,36.0,29.56,NNE,22,6.0,-999.0,13,-99.99,,,-99.99,,2013-06-13 23:43:00,
2013-06-13 16:52:00,95.0,36.0,29.56,NNE,22,6.0,-999.0,13,-99.99,,,-99.99,,2013-06-13 23:52:00,
2013-06-13 17:01:00,94.0,36.0,29.55,North,360,6.0,-999.0,13,-99.99,,,-99.99,,2013-06-14 00:01:00,
2013-06-13 17:11:00,94.0,36.0,29.55,North,360,6.0,-999.0,13,-99.99,,,-99.99,,2013-06-14 00:11:00,
2013-06-13 17:22:00,94.0,36.0,29.55,North,351,6.0,-999.0,13,-99.99,,,-99.99,,2013-06-14 00:22:00,
2013-06-13 17:33:00,93.0,37.0,29.55,NW,323,7.0,-999.0,14,-99.99,,,-99.99,,2013-06-14 00:33:00,
2013-06-13 17:43:00,92.0,38.0,29.56,NNW,348,6.0,-999.0,15,-99.99,,,-99.99,,2013-06-14 00:43:00,
2013-06-13 17:53:00,92.0,38.0,29.56,NNW,348,6.0,-999.0,15,-99.99,,,-99.99,,2013-06-14 00:53:00,
2013-06-13 18:01:00,92.0,38.0,29.56,North,360,7.0,-999.0,15,-99.99,,,-99.99,,2013-06-14 01:01:00,
2013-06-13 18:11:00,91.0,37.0,29.56,North,360,7.0,-999.0,15,-99.99,,,-99.99,,2013-06-14 01:11:00,
2013-06-13 18:22:00,91.0,37.0,29.56,North,360,7.0,-999.0,15,-99.99,,,-99.99,,2013-06-14 01:22:00,
2013-06-13 18:32:00,91.0,39.0,29.57,North,351,5.0,-999.0,16,-99.99,,,-99.99,,2013-06-14 01:32:00,
2013-06-13 18:43:00,90.0,38.0,29.57,NW,320,5.0,-999.0,16,-99.99,,,-99.99,,2013-06-14 01:43:00,
2013-06-13 18:52:00,90.0,38.0,29.57,NW,320,5.0,-999.0,16,-99.99,,,-99.99,,2013-06-14 01:52:00,
2013-06-13 19:01:00,89.0,37.0,29.57,NNW,327,5.0,-999.0,16,-99.99,,,-99.99,,2013-06-14 02:01:00,
2013-06-13 19:11:00,89.0,37.0,29.57,NNW,327,5.0,-999.0,16,-99.99,,,-99.99,,2013-06-14 02:11:00,
2013-06-13 19:22:00,88.0,36.0,29.57,NNW,338,4.0,-999.0,16,-99.99,,,-99.99,,2013-06-14 02:22:00,
2013-06-13 19:32:00,87.0,35.0,29.58,North,351,3.0,-999.0,16,-99.99,,,-99.99,,2013-06-14 02:32:00,
2013-06-13 19:43:00,86.0,35.0,29.58,NNW,327,4.0,-999.0,16,-99.99,,,-99.99,,2013-06-14 02:43:00,
2013-06-13 19:52:00,86.0,35.0,29.58,NNW,327,4.0,-999.0,16,-99.99,,,-99.99,,2013-06-14 02:52:00,
2013-06-13 20:02:00,85.0,35.0,29.58,NW,319,3.0,-999.0,17,-99.99,,,-99.99,,2013-06-14 03:02:00,
2013-06-13 20:11:00,84.0,34.0,29.59,NW,314,3.0,-999.0,17,-99.99,,,-99.99,,2013-06-14 03:11:00,
2013-06-13 20:22:00,84.0,34.0,29.59,NW,314,3.0,-999.0,17,-99.99,,,-99.99,,2013-06-14 03:22:00,
2013-06-13 20:34:00,84.0,36.0,29.59,WNW,301,3.0,-999.0,18,-99.99,,,-99.99,,2013-06-14 03:34:00,
2013-06-13 20:43:00,84.0,36.0,29.59,NW,308,4.0,-999.0,18,-99.99,,,-99.99,,2013-06-14 03:43:00,
2013-06-13 20:52:00,84.0,36.0,29.59,NW,308,4.0,-999.0,18,-99.99,,,-99.99,,2013-06-14 03:52:00,
2013-06-13 21:01:00,84.0,37.0,29.60,NW,321,3.0,-999.0,19,-99.99,,,-99.99,,2013-06-14 04:01:00,
2013-06-13 21:12:00,83.0,36.0,29.61,NNW,327,3.0,-999.0,19,-99.99,,,-99.99,,2013-06-14 04:12:00,
2013-06-13 21:22:00,83.0,38.0,29.62,NW,304,3.0,-999.0,20,-99.99,,,-99.99,,2013-06-14 04:22:00,
2013-06-13 21:33:00,83.0,38.0,29.62,NW,304,3.0,-999.0,20,-99.99,,,-99.99,,2013-06-14 04:33:00,
2013-06-13 21:43:00,82.0,38.0,29.64,WNW,300,3.0,-999.0,21,-99.99,,,-99.99,,2013-06-14 04:43:00,
2013-06-13 21:53:00,82.0,38.0,29.64,WNW,300,3.0,-999.0,21,-99.99,,,-99.99,,2013-06-14 04:53:00,
2013-06-13 22:01:00,82.0,38.0,29.64,NW,309,2.0,-999.0,21,-99.99,,,-99.99,,2013-06-14 05:01:00,
2013-06-13 22:11:00,82.0,38.0,29.64,NW,309,2.0,-999.0,21,-99.99,,,-99.99,,2013-06-14 05:11:00,
2013-06-13 22:22:00,81.0,39.0,29.64,WNW,296,2.0,-999.0,22,-99.99,,,-99.99,,2013-06-14 05:22:00,
2013-06-13 22:33:00,80.0,38.0,29.65,WNW,290,2.0,-999.0,22,-99.99,,,-99.99,,2013-06-14 05:33:00,
2013-06-13 22:42:00,80.0,39.0,29.65,NW,313,1.0,-999.0,23,-99.99,,,-99.99,,2013-06-14 05:42:00,
2013-06-13 22:52:00,80.0,39.0,29.65,NW,313,1.0,-999.0,23,-99.99,,,-99.99,,2013-06-14 05:52:00,
2013-06-13 23:02:00,79.0,38.0,29.65,NW,311,1.0,-999.0,23,-99.99,,,-99.99,,2013-06-14 06:02:00,
2013-06-13 23:12:00,78.0,38.0,29.65,NW,309,1.0,-999.0,24,-99.99,,,-99.99,,2013-06-14 06:12:00,
2013-06-13 23:22:00,78.0,38.0,29.65,NW,309,1.0,-999.0,24,-99.99,,,-99.99,,2013-06-14 06:22:00,
2013-06-13 23:33:00,77.0,39.0,29.65,NW,309,0.0,-999.0,26,-99.99,,,-99.99,,2013-06-14 06:33:00,
2013-06-13 23:43:00,78.0,40.0,29.65,WNW,302,1.0,-999.0,26,-99.99,,,-99.99,,2013-06-14 06:43:00,
2013-06-13 23:52:00,78.0,40.0,29.65,WNW,302,1.0,-999.0,26,-99.99,,,-99.99,,2013-06-14 06:52:00,